Time;durP1;ratioP1;P1;durP2;ratioP2;P2;SDS_P1;SDS_P2;PMS_P1;PMS_P2;Temp;Humidity;BMP_temperature;BMP_pressure;BME280_temperature;BME280_humidity;BME280_pressure;Samples;Min_cycle;Max_cycle;Signal;HPM_P1;HPM_P2
2021/06/18 00:00:22;;;;;;;2.40;1.50;;;20.70;82.40;;;;;;5097461;28;20024;-91
2021/06/18 00:02:51;;;;;;;4.38;1.88;;;20.70;82.70;;;;;;5094725;28;20024;-90
2021/06/18 00:05:17;;;;;;;3.17;1.60;;;20.60;82.80;;;;;;5106126;28;20096;-88
2021/06/18 00:07:44;;;;;;;3.25;1.67;;;20.60;82.90;;;;;;5120161;28;20076;-89
2021/06/18 00:10:12;;;;;;;2.08;1.70;;;20.60;83.30;;;;;;5103023;28;20055;-90
2021/06/18 00:12:38;;;;;;;2.58;1.85;;;20.50;83.40;;;;;;5097559;28;20024;-89
2021/06/18 00:15:06;;;;;;;2.15;1.63;;;20.60;83.80;;;;;;5096747;28;20032;-91
2021/06/18 00:17:32;;;;;;;2.58;1.55;;;20.60;84.00;;;;;;5099336;28;20177;-90
2021/06/18 00:19:58;;;;;;;2.45;1.75;;;20.70;84.00;;;;;;5100295;28;20528;-89
2021/06/18 00:22:24;;;;;;;2.08;1.40;;;20.70;83.70;;;;;;5098087;28;20377;-89
2021/06/18 00:24:49;;;;;;;2.08;1.63;;;20.80;83.40;;;;;;5094531;28;20028;-90
2021/06/18 00:27:15;;;;;;;1.63;1.52;;;20.80;82.90;;;;;;5094184;28;20028;-90
2021/06/18 00:29:41;;;;;;;2.13;1.33;;;20.80;82.50;;;;;;5099999;28;20031;-89
2021/06/18 00:32:07;;;;;;;2.90;1.80;;;20.90;82.30;;;;;;5112839;28;20016;-89
2021/06/18 00:34:33;;;;;;;1.70;1.60;;;20.90;82.20;;;;;;5097562;28;20024;-91
2021/06/18 00:36:59;;;;;;;3.13;1.70;;;20.90;82.10;;;;;;5093743;28;20081;-90
2021/06/18 00:39:25;;;;;;;5.05;1.98;;;20.90;81.90;;;;;;5093651;28;20024;-89
2021/06/18 00:41:51;;;;;;;3.67;1.63;;;21.00;81.60;;;;;;5093859;28;20032;-91
2021/06/18 00:44:17;;;;;;;2.08;1.70;;;21.00;81.40;;;;;;5093746;28;20454;-91
2021/06/18 00:46:44;;;;;;;2.22;1.80;;;21.00;81.20;;;;;;5094896;28;20053;-91
2021/06/18 00:49:10;;;;;;;2.22;1.60;;;21.00;81.00;;;;;;5093609;28;20389;-91
2021/06/18 00:51:37;;;;;;;4.72;1.92;;;21.00;80.80;;;;;;5093357;28;20028;-90
2021/06/18 00:54:02;;;;;;;2.95;1.83;;;21.00;80.80;;;;;;5093570;28;20393;-90
2021/06/18 00:56:29;;;;;;;2.53;1.63;;;21.00;80.80;;;;;;5093312;28;20036;-91
2021/06/18 00:59:00;;;;;;;5.15;1.80;;;21.00;80.70;;;;;;5093542;28;20544;-88
2021/06/18 01:01:26;;;;;;;1.40;1.30;;;21.00;80.40;;;;;;5094655;28;20053;-90
2021/06/18 01:03:52;;;;;;;4.00;1.70;;;21.00;80.30;;;;;;5092703;28;20024;-90
2021/06/18 01:06:26;;;;;;;3.75;1.75;;;20.90;80.20;;;;;;5093266;28;20024;-90
2021/06/18 01:09:05;;;;;;;2.08;1.80;;;20.90;80.10;;;;;;5093278;28;20047;-90
2021/06/18 01:11:49;;;;;;;5.57;1.85;;;20.90;80.10;;;;;;5093078;28;20024;-90
2021/06/18 01:14:36;;;;;;;5.03;2.00;;;20.80;80.40;;;;;;5093287;28;20027;-90
2021/06/18 01:17:14;;;;;;;5.60;1.70;;;20.70;80.50;;;;;;5093185;28;20040;-88
2021/06/18 01:19:50;;;;;;;2.38;1.77;;;20.70;80.80;;;;;;5093452;28;20021;-90
2021/06/18 01:22:20;;;;;;;2.20;1.60;;;20.70;80.90;;;;;;5093609;28;20036;-90
2021/06/18 01:24:48;;;;;;;7.70;1.60;;;20.70;81.10;;;;;;5094224;28;20019;-90
2021/06/18 01:27:44;;;;;;;2.78;1.65;;;20.60;81.20;;;;;;5094492;28;20032;-91
2021/06/18 01:30:19;;;;;;;2.17;1.60;;;20.60;81.50;;;;;;5041042;28;20045;-90
2021/06/18 01:33:05;;;;;;;3.08;1.77;;;20.60;81.60;;;;;;5094622;28;20089;-90
2021/06/18 01:36:03;;;;;;;3.67;1.70;;;20.60;81.70;;;;;;5095492;28;20043;-90
2021/06/18 01:38:32;;;;;;;3.75;1.30;;;20.60;81.60;;;;;;5113841;28;20088;-89
2021/06/18 01:41:01;;;;;;;2.08;1.60;;;20.60;81.60;;;;;;5103241;28;20029;-90
2021/06/18 01:43:29;;;;;;;3.17;1.50;;;20.60;81.40;;;;;;5093576;28;20040;-89
2021/06/18 01:45:56;;;;;;;4.43;1.80;;;20.60;81.30;;;;;;5092815;28;20522;-91
2021/06/18 01:48:24;;;;;;;1.48;1.38;;;20.70;81.20;;;;;;5092605;28;20032;-89
2021/06/18 01:50:53;;;;;;;2.65;1.90;;;20.70;81.10;;;;;;5094500;28;20032;-90
2021/06/18 01:53:20;;;;;;;1.90;1.70;;;20.70;80.90;;;;;;5092747;28;20063;-90
2021/06/18 01:55:49;;;;;;;1.92;1.80;;;20.70;80.80;;;;;;5092575;28;20096;-90
2021/06/18 01:58:18;;;;;;;3.05;1.60;;;20.70;80.70;;;;;;5092633;28;20027;-90
2021/06/18 02:00:48;;;;;;;5.47;1.80;;;20.70;80.60;;;;;;5093907;28;20031;-90
2021/06/18 02:03:19;;;;;;;1.90;1.70;;;20.70;80.60;;;;;;5092667;28;20506;-91
2021/06/18 02:05:46;;;;;;;2.95;1.95;;;20.70;80.60;;;;;;5092366;28;20027;-91
2021/06/18 02:08:13;;;;;;;2.92;1.95;;;20.60;80.70;;;;;;5092464;28;20530;-91
2021/06/18 02:10:42;;;;;;;2.03;1.77;;;20.60;80.70;;;;;;5093360;28;20024;-91
2021/06/18 02:13:10;;;;;;;3.47;2.13;;;20.60;80.60;;;;;;5092142;28;20115;-90
2021/06/18 02:15:38;;;;;;;3.92;2.15;;;20.60;80.80;;;;;;5096328;28;20112;-91
2021/06/18 02:18:09;;;;;;;1.60;1.50;;;20.50;80.60;;;;;;5096840;28;20096;-91
2021/06/18 02:20:37;;;;;;;1.95;1.77;;;20.50;80.70;;;;;;5096362;28;20078;-91
2021/06/18 02:23:03;;;;;;;6.35;2.00;;;20.50;80.80;;;;;;5097954;28;20020;-91
2021/06/18 02:25:31;;;;;;;3.70;1.75;;;20.50;80.90;;;;;;5096931;28;20024;-90
2021/06/18 02:27:59;;;;;;;1.70;1.60;;;20.40;81.00;;;;;;5096885;28;20116;-91
2021/06/18 02:30:26;;;;;;;3.85;1.77;;;20.40;81.20;;;;;;5097529;28;20491;-89
2021/06/18 02:32:53;;;;;;;2.85;1.73;;;20.40;81.30;;;;;;5100741;28;20385;-88
2021/06/18 02:35:19;;;;;;;1.65;1.48;;;20.40;81.40;;;;;;5096695;28;20023;-91
2021/06/18 02:37:45;;;;;;;4.97;1.67;;;20.50;81.30;;;;;;5097999;28;20028;-91
2021/06/18 02:40:11;;;;;;;1.75;1.23;;;20.50;81.30;;;;;;5096382;28;20034;-91
2021/06/18 02:42:37;;;;;;;2.00;1.88;;;20.50;81.80;;;;;;5096242;28;20119;-91
2021/06/18 02:45:03;;;;;;;6.90;1.98;;;20.50;81.10;;;;;;5096184;28;20502;-89
2021/06/18 02:47:35;;;;;;;1.67;1.58;;;20.50;81.00;;;;;;5095615;28;20028;-90
2021/06/18 02:50:05;;;;;;;2.17;1.63;;;20.60;81.00;;;;;;5097113;28;20035;-87
2021/06/18 02:52:55;;;;;;;3.15;1.70;;;20.60;80.80;;;;;;5096110;28;20047;-91
2021/06/18 02:55:38;;;;;;;3.45;1.67;;;20.70;80.40;;;;;;5095690;28;20020;-90
2021/06/18 02:58:30;;;;;;;4.95;1.75;;;20.70;79.90;;;;;;5095899;28;20036;-90
2021/06/18 03:00:57;;;;;;;3.53;1.80;;;20.70;80.50;;;;;;5097105;28;20025;-91
2021/06/18 03:03:29;;;;;;;1.60;1.50;;;20.60;80.00;;;;;;5095795;28;20174;-90
2021/06/18 03:06:00;;;;;;;2.92;1.90;;;20.70;80.10;;;;;;5095569;28;20052;-89
2021/06/18 03:08:34;;;;;;;2.78;2.00;;;20.70;79.90;;;;;;5097816;28;20473;-90
2021/06/18 03:11:02;;;;;;;3.22;1.90;;;20.70;79.70;;;;;;5096479;28;20130;-91
2021/06/18 03:13:32;;;;;;;2.83;2.00;;;20.60;79.80;;;;;;5096044;28;20543;-90
2021/06/18 03:15:59;;;;;;;3.47;2.15;;;20.60;79.80;;;;;;5095303;28;20046;-89
2021/06/18 03:18:26;;;;;;;2.00;1.80;;;20.50;80.00;;;;;;5097069;28;20062;-90
2021/06/18 03:20:56;;;;;;;3.42;1.90;;;20.50;80.30;;;;;;5095376;28;20058;-90
2021/06/18 03:23:24;;;;;;;2.50;1.83;;;20.50;80.40;;;;;;5096642;28;20092;-89
2021/06/18 03:25:50;;;;;;;2.50;1.98;;;20.50;80.50;;;;;;5094552;28;20028;-90
2021/06/18 03:28:18;;;;;;;3.83;1.90;;;20.50;80.60;;;;;;5095902;28;20036;-90
2021/06/18 03:30:48;;;;;;;3.95;1.83;;;20.40;80.70;;;;;;5096311;28;20479;-89
2021/06/18 03:33:14;;;;;;;2.03;1.80;;;20.50;80.90;;;;;;5095268;28;20028;-90
2021/06/18 03:35:41;;;;;;;1.90;1.50;;;20.50;81.00;;;;;;5095138;28;20047;-90
2021/06/18 03:38:08;;;;;;;3.28;1.80;;;20.50;81.20;;;;;;5095032;28;20063;-90
2021/06/18 03:40:35;;;;;;;2.00;1.90;;;20.50;81.30;;;;;;5094906;28;20035;-90
2021/06/18 03:43:01;;;;;;;2.42;2.00;;;20.60;81.40;;;;;;5095318;28;20404;-90
2021/06/18 03:45:28;;;;;;;4.40;2.10;;;20.70;81.40;;;;;;5096219;28;20073;-91
2021/06/18 03:47:54;;;;;;;1.92;1.50;;;20.70;81.40;;;;;;5094827;28;20063;-91
2021/06/18 03:50:23;;;;;;;2.80;1.70;;;20.70;81.20;;;;;;5093776;28;20024;-91
2021/06/18 03:52:49;;;;;;;1.92;1.80;;;20.80;81.20;;;;;;5093125;28;20066;-91
2021/06/18 03:55:15;;;;;;;5.38;1.77;;;20.80;81.00;;;;;;5093536;28;20439;-90
2021/06/18 03:57:48;;;;;;;3.30;2.13;;;20.90;80.90;;;;;;5093291;28;20080;-92
2021/06/18 04:00:49;;;;;;;4.22;1.65;;;20.90;80.60;;;;;;5095385;28;20105;-90
2021/06/18 04:03:16;;;;;;;2.50;1.88;;;20.90;80.40;;;;;;5096463;28;20028;-90
2021/06/18 04:05:44;;;;;;;5.28;1.90;;;20.90;80.30;;;;;;5094362;28;20023;-91
2021/06/18 04:08:13;;;;;;;1.90;1.70;;;20.90;80.30;;;;;;5094563;28;20031;-91
2021/06/18 04:10:40;;;;;;;1.90;1.75;;;20.90;80.20;;;;;;5094433;28;20019;-90
2021/06/18 04:13:07;;;;;;;5.15;2.08;;;20.90;80.10;;;;;;5094906;28;20024;-89
2021/06/18 04:15:33;;;;;;;2.58;2.00;;;21.00;80.10;;;;;;5095617;28;20024;-89
2021/06/18 04:18:00;;;;;;;1.75;1.65;;;21.00;80.10;;;;;;5096829;28;20063;-89
2021/06/18 04:20:27;;;;;;;3.95;1.88;;;21.00;80.30;;;;;;5094289;28;20060;-90
2021/06/18 04:22:53;;;;;;;2.10;1.88;;;21.20;80.30;;;;;;5094870;28;20039;-90
2021/06/18 04:25:20;;;;;;;2.80;1.75;;;21.30;80.10;;;;;;5094129;28;20044;-91
2021/06/18 04:27:45;;;;;;;2.83;1.67;;;21.50;79.50;;;;;;5094226;28;20032;-90
2021/06/18 04:30:14;;;;;;;2.92;2.00;;;21.60;78.80;;;;;;5093902;28;20016;-90
2021/06/18 04:32:40;;;;;;;2.17;1.70;;;21.70;78.40;;;;;;5093858;28;20389;-90
2021/06/18 04:35:08;;;;;;;4.10;2.10;;;21.80;78.40;;;;;;5093801;28;20024;-90
2021/06/18 04:37:35;;;;;;;2.60;2.00;;;21.90;77.90;;;;;;5093777;28;20044;-90
2021/06/18 04:40:02;;;;;;;2.78;2.00;;;21.90;77.80;;;;;;5094003;28;20104;-89
2021/06/18 04:42:27;;;;;;;3.13;2.00;;;22.10;77.30;;;;;;5095400;28;20028;-89
2021/06/18 04:44:53;;;;;;;3.80;1.95;;;22.20;76.80;;;;;;5093811;28;20111;-90
2021/06/18 04:47:19;;;;;;;4.28;2.38;;;22.30;76.60;;;;;;5095226;28;20381;-89
2021/06/18 04:49:48;;;;;;;3.85;1.98;;;22.40;76.00;;;;;;5094231;28;20461;-89
2021/06/18 04:52:16;;;;;;;7.22;2.20;;;22.40;76.00;;;;;;5094760;28;20412;-90
2021/06/18 04:54:42;;;;;;;4.88;2.00;;;22.60;75.30;;;;;;5096371;28;20028;-89
2021/06/18 04:57:09;;;;;;;2.90;1.90;;;22.70;75.20;;;;;;5094299;28;20028;-90
2021/06/18 04:59:38;;;;;;;2.20;2.00;;;22.80;74.50;;;;;;5093860;28;20094;-89
2021/06/18 05:02:05;;;;;;;2.72;2.30;;;22.90;74.00;;;;;;5095119;28;20028;-89
2021/06/18 05:04:31;;;;;;;4.32;2.40;;;23.10;73.80;;;;;;5093957;28;20080;-89
2021/06/18 05:06:57;;;;;;;4.63;2.38;;;23.20;72.40;;;;;;5093882;28;20374;-91
2021/06/18 05:09:23;;;;;;;2.63;2.20;;;23.30;72.60;;;;;;5093440;28;20118;-89
2021/06/18 05:11:49;;;;;;;4.40;2.13;;;23.40;72.50;;;;;;5092767;28;20024;-90
2021/06/18 05:14:14;;;;;;;2.78;2.05;;;23.60;71.70;;;;;;5093913;28;20511;-90
2021/06/18 05:16:40;;;;;;;2.40;1.90;;;23.70;71.80;;;;;;5092760;28;20081;-90
2021/06/18 05:19:07;;;;;;;1.77;1.60;;;23.90;71.90;;;;;;5097421;28;20118;-89
2021/06/18 05:21:33;;;;;;;4.55;1.77;;;24.30;72.30;;;;;;5093953;28;20020;-89
2021/06/18 05:23:59;;;;;;;5.60;1.90;;;24.60;71.30;;;;;;5093441;28;20110;-91
2021/06/18 05:26:25;;;;;;;3.25;1.88;;;24.90;70.40;;;;;;5093103;28;20024;-88
2021/06/18 05:28:51;;;;;;;3.83;1.98;;;25.20;69.60;;;;;;5093390;28;20028;-90
2021/06/18 05:31:16;;;;;;;2.42;1.73;;;25.50;68.30;;;;;;5092852;28;20058;-91
2021/06/18 05:33:42;;;;;;;1.88;1.40;;;25.70;67.90;;;;;;5094056;28;20032;-91
2021/06/18 05:36:08;;;;;;;2.63;1.50;;;25.90;68.20;;;;;;5093290;28;20504;-90
2021/06/18 05:38:34;;;;;;;2.28;1.70;;;26.20;67.40;;;;;;5094477;28;20024;-91
2021/06/18 05:40:59;;;;;;;2.22;1.60;;;26.30;64.90;;;;;;5099921;28;20035;-87
2021/06/18 05:43:25;;;;;;;6.35;1.80;;;26.30;65.40;;;;;;5100331;28;20024;-91
2021/06/18 05:45:51;;;;;;;2.72;1.70;;;26.40;65.30;;;;;;5093529;28;20020;-87
2021/06/18 05:48:16;;;;;;;5.22;1.60;;;26.40;65.00;;;;;;5094033;28;20361;-89
2021/06/18 05:50:42;;;;;;;4.07;1.92;;;26.30;64.30;;;;;;5092452;28;20423;-89
2021/06/18 05:53:08;;;;;;;2.70;1.92;;;26.20;64.30;;;;;;5093083;28;20125;-89
2021/06/18 05:55:34;;;;;;;3.28;1.83;;;26.00;64.70;;;;;;5090547;28;20477;-91
2021/06/18 05:58:00;;;;;;;4.95;1.70;;;26.00;65.00;;;;;;5090720;28;20059;-90
2021/06/18 06:00:26;;;;;;;1.88;1.77;;;25.80;64.60;;;;;;5091794;28;20038;-90
2021/06/18 06:02:52;;;;;;;2.53;1.70;;;25.70;64.90;;;;;;5090565;28;20024;-89
2021/06/18 06:05:18;;;;;;;2.53;1.73;;;25.60;65.40;;;;;;5090482;28;20031;-91
2021/06/18 06:07:47;;;;;;;6.70;1.65;;;25.70;65.70;;;;;;5090352;28;20023;-90
2021/06/18 06:10:14;;;;;;;1.70;1.60;;;25.80;65.30;;;;;;5092388;28;20024;-91
2021/06/18 06:12:41;;;;;;;2.67;1.70;;;25.90;65.30;;;;;;5093416;28;20025;-91
2021/06/18 06:15:07;;;;;;;3.92;1.77;;;26.10;65.70;;;;;;5092412;28;20031;-90
2021/06/18 06:17:33;;;;;;;2.08;1.55;;;26.40;66.00;;;;;;5090946;28;20405;-90
2021/06/18 06:19:59;;;;;;;3.60;1.70;;;26.90;65.50;;;;;;5090503;28;20024;-90
2021/06/18 06:22:24;;;;;;;2.05;1.40;;;27.30;64.40;;;;;;5089915;28;20028;-89
2021/06/18 06:24:51;;;;;;;2.90;1.50;;;27.60;63.70;;;;;;5093514;28;20030;-90
2021/06/18 06:27:17;;;;;;;2.72;1.55;;;27.80;62.90;;;;;;5090959;28;20051;-90
2021/06/18 06:29:43;;;;;;;1.83;1.60;;;28.00;62.40;;;;;;5092811;28;20115;-87
2021/06/18 06:32:08;;;;;;;2.63;1.60;;;28.30;62.00;;;;;;5093246;28;20099;-86
2021/06/18 06:34:34;;;;;;;1.98;1.80;;;28.60;61.40;;;;;;5092783;28;20106;-89
2021/06/18 06:37:00;;;;;;;4.30;1.48;;;28.80;60.00;;;;;;5092483;28;20036;-90
2021/06/18 06:39:26;;;;;;;2.55;1.63;;;28.60;59.60;;;;;;5093368;28;20024;-89
2021/06/18 06:41:52;;;;;;;1.70;1.50;;;28.60;59.60;;;;;;5094290;28;20050;-88
2021/06/18 06:44:17;;;;;;;1.80;1.63;;;28.40;59.70;;;;;;5094956;28;20031;-89
2021/06/18 06:46:43;;;;;;;3.42;1.50;;;28.10;59.40;;;;;;5095417;28;20055;-89
2021/06/18 06:49:09;;;;;;;2.38;1.63;;;28.10;60.20;;;;;;5093683;28;20024;-88
2021/06/18 06:51:35;;;;;;;3.30;1.80;;;28.10;60.40;;;;;;5093291;28;20032;-90
2021/06/18 06:54:01;;;;;;;4.05;1.83;;;28.20;60.00;;;;;;5095467;28;20473;-87
2021/06/18 06:56:26;;;;;;;5.50;1.70;;;28.10;59.80;;;;;;5093276;28;20040;-88
2021/06/18 06:58:55;;;;;;;2.33;1.48;;;28.10;60.20;;;;;;5094829;28;20149;-88
2021/06/18 07:01:22;;;;;;;4.30;1.60;;;28.10;60.20;;;;;;5097774;28;20024;-88
2021/06/18 07:03:47;;;;;;;2.70;1.80;;;28.10;60.20;;;;;;5095914;28;20016;-89
2021/06/18 07:06:13;;;;;;;3.35;1.55;;;28.20;60.20;;;;;;5096659;28;20046;-89
2021/06/18 07:08:39;;;;;;;2.42;1.80;;;28.20;59.80;;;;;;5095746;28;20020;-87
2021/06/18 07:11:05;;;;;;;2.83;1.65;;;28.10;60.00;;;;;;5095109;28;20024;-89
2021/06/18 07:13:31;;;;;;;2.65;1.80;;;27.80;59.60;;;;;;5095847;28;20092;-89
2021/06/18 07:15:56;;;;;;;2.97;1.92;;;27.50;60.10;;;;;;5095502;28;20024;-89
2021/06/18 07:18:22;;;;;;;1.83;1.60;;;27.10;60.60;;;;;;5096175;28;20054;-89
2021/06/18 07:20:48;;;;;;;3.53;1.67;;;26.80;61.00;;;;;;5095572;28;20020;-89
2021/06/18 07:23:14;;;;;;;2.08;1.70;;;26.70;61.50;;;;;;5095519;28;20329;-91
2021/06/18 07:25:42;;;;;;;2.55;1.90;;;26.70;62.30;;;;;;5096447;28;20027;-89
2021/06/18 07:28:08;;;;;;;2.15;1.70;;;27.00;62.60;;;;;;5096143;28;20036;-92
2021/06/18 07:30:34;;;;;;;1.67;1.50;;;27.40;62.20;;;;;;5095579;28;20058;-88
2021/06/18 07:33:00;;;;;;;5.85;1.90;;;27.60;61.70;;;;;;5095430;28;20068;-89
2021/06/18 07:35:25;;;;;;;4.70;1.60;;;27.70;61.50;;;;;;5096975;28;20495;-89
2021/06/18 07:37:52;;;;;;;3.03;1.90;;;27.70;61.40;;;;;;5095075;28;20028;-88
2021/06/18 07:40:18;;;;;;;4.25;1.60;;;27.50;61.60;;;;;;5093139;28;20016;-89
2021/06/18 07:42:45;;;;;;;4.30;2.00;;;27.40;62.00;;;;;;5092771;28;20040;-89
2021/06/18 07:45:13;;;;;;;6.00;1.88;;;27.20;62.20;;;;;;5093491;28;20375;-89
2021/06/18 07:47:42;;;;;;;3.05;1.83;;;27.10;62.20;;;;;;5103466;28;20032;-89
2021/06/18 07:50:13;;;;;;;4.32;1.80;;;26.90;62.60;;;;;;5108859;28;20380;-88
2021/06/18 07:52:39;;;;;;;3.85;1.75;;;26.70;63.00;;;;;;5095682;28;20115;-89
2021/06/18 07:55:08;;;;;;;5.35;2.10;;;26.60;63.40;;;;;;5094825;28;20036;-88
2021/06/18 07:57:34;;;;;;;3.22;1.60;;;26.60;63.50;;;;;;5094421;28;20040;-90
2021/06/18 08:00:00;;;;;;;2.45;1.92;;;26.60;63.60;;;;;;5092929;28;20020;-90
2021/06/18 08:02:25;;;;;;;5.43;2.05;;;26.70;63.40;;;;;;5094623;28;20372;-88
2021/06/18 08:04:52;;;;;;;1.95;1.65;;;26.80;63.20;;;;;;5092632;28;20123;-89
2021/06/18 08:07:18;;;;;;;2.05;1.77;;;26.70;63.10;;;;;;5093056;28;20119;-88
2021/06/18 08:09:45;;;;;;;3.83;1.80;;;26.80;63.70;;;;;;5092389;28;20445;-90
2021/06/18 08:12:11;;;;;;;3.33;1.92;;;26.90;63.90;;;;;;5091714;28;20127;-89
2021/06/18 08:14:37;;;;;;;6.80;2.05;;;27.30;64.00;;;;;;5092926;28;20411;-88
2021/06/18 08:17:03;;;;;;;2.45;1.90;;;27.80;63.20;;;;;;5093900;28;20040;-89
2021/06/18 08:19:29;;;;;;;4.85;1.73;;;28.30;61.50;;;;;;5093834;28;20024;-88
2021/06/18 08:21:55;;;;;;;3.17;2.00;;;28.60;59.90;;;;;;5094116;28;20319;-90
2021/06/18 08:24:20;;;;;;;5.40;1.85;;;28.50;59.50;;;;;;5098125;28;20029;-90
2021/06/18 08:26:46;;;;;;;3.13;1.75;;;28.30;59.20;;;;;;5098298;28;20093;-89
2021/06/18 08:29:12;;;;;;;3.90;1.88;;;28.10;59.60;;;;;;5095227;28;20024;-90
2021/06/18 08:31:37;;;;;;;2.97;1.73;;;28.00;60.10;;;;;;5093956;28;20024;-89
2021/06/18 08:34:03;;;;;;;1.92;1.67;;;28.00;60.40;;;;;;5094180;28;20082;-89
2021/06/18 08:36:29;;;;;;;2.15;1.80;;;28.00;60.60;;;;;;5095778;28;20480;-88
2021/06/18 08:38:55;;;;;;;2.28;1.77;;;28.30;60.70;;;;;;5096181;28;20485;-88
2021/06/18 08:41:21;;;;;;;4.53;1.80;;;28.60;60.50;;;;;;5096050;28;20035;-91
2021/06/18 08:43:48;;;;;;;1.83;1.58;;;28.90;60.60;;;;;;5095113;28;20039;-89
2021/06/18 08:46:14;;;;;;;2.30;1.70;;;29.10;59.80;;;;;;5094338;28;20028;-90
2021/06/18 08:48:39;;;;;;;3.58;1.65;;;29.20;60.20;;;;;;5094447;28;20531;-90
2021/06/18 08:51:05;;;;;;;4.57;1.92;;;29.50;59.60;;;;;;5095046;28;20088;-93
2021/06/18 08:53:35;;;;;;;2.47;2.00;;;29.70;59.10;;;;;;5109407;28;20040;-89
2021/06/18 08:56:05;;;;;;;1.55;1.45;;;29.90;58.30;;;;;;5114253;28;20067;-90
2021/06/18 08:58:30;;;;;;;4.05;1.67;;;29.80;58.00;;;;;;5097102;28;20055;-91
2021/06/18 09:00:56;;;;;;;4.28;1.70;;;29.80;58.30;;;;;;5095914;28;20020;-91
2021/06/18 09:03:42;;;;;;;3.45;1.75;;;30.10;58.80;;;;;;5096017;28;20024;-87
2021/06/18 09:06:27;;;;;;;2.38;1.92;;;30.70;57.60;;;;;;5092667;28;20028;-88
2021/06/18 09:09:19;;;;;;;2.58;1.60;;;31.40;57.00;;;;;;5093431;28;20039;-89
2021/06/18 09:11:52;;;;;;;4.28;1.80;;;32.00;54.90;;;;;;5094458;28;20046;-88
2021/06/18 09:14:41;;;;;;;3.42;1.70;;;32.30;53.90;;;;;;5094877;28;20093;-90
2021/06/18 09:17:20;;;;;;;5.28;1.70;;;32.40;53.50;;;;;;5094546;28;20052;-89
2021/06/18 09:19:52;;;;;;;1.85;1.73;;;32.60;53.00;;;;;;5092949;28;20507;-90
2021/06/18 09:22:35;;;;;;;3.13;1.98;;;33.10;52.70;;;;;;5092047;28;20051;-90
2021/06/18 09:25:03;;;;;;;2.55;1.60;;;33.60;52.30;;;;;;5091743;28;20032;-90
2021/06/18 09:27:35;;;;;;;4.55;1.63;;;34.10;51.60;;;;;;5091743;28;20138;-90
2021/06/18 09:30:17;;;;;;;2.03;1.60;;;34.30;50.60;;;;;;5091771;28;20035;-88
2021/06/18 09:33:05;;;;;;;2.13;1.52;;;34.60;50.70;;;;;;5091182;28;20036;-90
2021/06/18 09:35:32;;;;;;;1.85;1.73;;;35.10;49.80;;;;;;5091217;28;20027;-91
2021/06/18 09:38:01;;;;;;;1.83;1.55;;;35.50;49.50;;;;;;5091666;28;20032;-90
2021/06/18 09:40:27;;;;;;;4.30;1.80;;;35.90;49.10;;;;;;5093206;28;20027;-92
2021/06/18 09:43:11;;;;;;;1.98;1.33;;;36.10;48.80;;;;;;5093718;28;20109;-88
2021/06/18 09:45:39;;;;;;;2.05;1.75;;;36.30;48.60;;;;;;5094673;28;20047;-90
2021/06/18 09:48:21;;;;;;;2.47;1.40;;;36.30;47.70;;;;;;5094720;28;20024;-90
2021/06/18 09:50:48;;;;;;;1.60;1.50;;;36.10;47.80;;;;;;5093821;28;20032;-91
2021/06/18 09:53:21;;;;;;;1.95;1.70;;;36.00;48.00;;;;;;5093988;28;20032;-90
2021/06/18 09:55:59;;;;;;;2.17;1.60;;;35.50;46.80;;;;;;5092191;28;20389;-91
2021/06/18 09:58:34;;;;;;;3.20;1.73;;;34.60;47.40;;;;;;5096385;28;20131;-88
2021/06/18 10:01:16;;;;;;;2.92;1.92;;;33.70;48.10;;;;;;5102149;28;20118;-90
2021/06/18 10:03:59;;;;;;;2.80;1.70;;;32.60;49.10;;;;;;5094976;28;20123;-91
2021/06/18 10:06:25;;;;;;;3.92;1.77;;;31.70;51.00;;;;;;5092204;28;20507;-90
2021/06/18 10:08:51;;;;;;;2.58;1.55;;;31.20;52.30;;;;;;5095298;28;20024;-88
2021/06/18 10:11:18;;;;;;;2.47;1.80;;;31.00;53.10;;;;;;5093092;28;20024;-89
2021/06/18 10:13:44;;;;;;;4.47;1.85;;;30.70;53.50;;;;;;5096207;28;20384;-89
2021/06/18 10:16:10;;;;;;;3.72;1.80;;;30.70;54.00;;;;;;5091378;28;20116;-89
2021/06/18 10:18:35;;;;;;;2.53;1.77;;;30.60;54.10;;;;;;5092638;28;20024;-89
2021/06/18 10:21:04;;;;;;;2.10;1.63;;;30.70;55.20;;;;;;5094046;28;20089;-89
2021/06/18 10:23:31;;;;;;;2.45;1.77;;;31.40;55.60;;;;;;5092719;28;20081;-88
2021/06/18 10:26:02;;;;;;;1.60;1.50;;;32.10;54.40;;;;;;5094634;28;20020;-90
2021/06/18 10:28:33;;;;;;;1.92;1.60;;;32.60;53.30;;;;;;5094787;28;20095;-90
2021/06/18 10:31:07;;;;;;;2.60;1.80;;;33.10;53.20;;;;;;5101299;28;20020;-88
2021/06/18 10:33:35;;;;;;;2.20;1.50;;;33.80;50.80;;;;;;5116246;28;20032;-87
2021/06/18 10:36:08;;;;;;;5.20;1.70;;;34.40;50.30;;;;;;5101435;28;20032;-88
2021/06/18 10:38:38;;;;;;;3.20;1.55;;;34.90;48.90;;;;;;5096546;28;20450;-91
2021/06/18 10:41:13;;;;;;;1.70;1.60;;;34.80;48.70;;;;;;5096013;28;20444;-90
2021/06/18 10:43:40;;;;;;;2.05;1.58;;;34.90;48.40;;;;;;5096085;28;20043;-89
2021/06/18 10:46:08;;;;;;;4.07;1.60;;;34.90;48.90;;;;;;5096139;28;20020;-90
2021/06/18 10:48:53;;;;;;;3.33;1.45;;;35.10;49.00;;;;;;5097260;28;20032;-91
2021/06/18 10:51:29;;;;;;;3.08;1.50;;;35.60;47.80;;;;;;5096121;28;20024;-90
2021/06/18 10:54:25;;;;;;;2.20;1.40;;;35.80;48.30;;;;;;5096113;28;20119;-88
2021/06/18 10:56:56;;;;;;;1.70;1.35;;;35.80;47.90;;;;;;5088978;28;20131;-90
2021/06/18 10:59:32;;;;;;;2.58;1.50;;;35.40;47.60;;;;;;5108930;28;20028;-88
2021/06/18 11:02:01;;;;;;;2.45;1.45;;;34.50;48.30;;;;;;5098292;28;20032;-88
2021/06/18 11:04:43;;;;;;;3.20;1.40;;;33.60;49.20;;;;;;5094467;28;20480;-88
2021/06/18 11:07:31;;;;;;;1.60;1.38;;;32.70;50.10;;;;;;5095163;28;20084;-89
2021/06/18 11:09:57;;;;;;;5.20;1.90;;;32.00;51.50;;;;;;5093127;28;20059;-88
2021/06/18 11:12:23;;;;;;;2.90;1.38;;;31.20;52.70;;;;;;5093186;28;20473;-91
2021/06/18 11:15:20;;;;;;;1.80;1.63;;;30.60;53.80;;;;;;5095923;28;20024;-90
2021/06/18 11:17:53;;;;;;;3.08;1.80;;;30.10;54.80;;;;;;5070456;28;20549;-93
2021/06/18 11:20:24;;;;;;;1.95;1.80;;;29.60;56.10;;;;;;5095761;28;20114;-91
2021/06/18 11:23:20;;;;;;;2.30;1.70;;;29.30;57.40;;;;;;5096052;28;20397;-89
2021/06/18 11:25:49;;;;;;;3.35;1.67;;;28.90;58.10;;;;;;5095351;28;20093;-90
2021/06/18 11:30:57;;;;;;;2.58;1.85;;;28.50;59.80;;;;;;5097284;28;20028;-90
2021/06/18 11:33:45;;;;;;;3.83;1.70;;;28.20;59.90;;;;;;5095659;28;20035;-91
2021/06/18 11:36:17;;;;;;;2.88;1.70;;;28.00;60.40;;;;;;5096761;28;20029;-90
2021/06/18 11:38:47;;;;;;;8.30;1.80;;;27.90;61.10;;;;;;5096516;28;20473;-91
2021/06/18 11:41:16;;;;;;;4.65;1.90;;;27.70;61.30;;;;;;5095398;28;20024;-90
2021/06/18 11:43:42;;;;;;;2.35;1.85;;;27.50;61.70;;;;;;5095703;28;20024;-89
2021/06/18 11:46:08;;;;;;;3.72;2.28;;;27.30;62.20;;;;;;5094517;28;20025;-89
2021/06/18 11:48:35;;;;;;;2.67;2.20;;;27.40;62.50;;;;;;5095388;28;20025;-90
2021/06/18 11:51:01;;;;;;;3.40;2.40;;;27.60;62.70;;;;;;5095349;28;20035;-88
2021/06/18 11:53:38;;;;;;;3.80;1.70;;;27.70;62.20;;;;;;5095809;28;20039;-89
2021/06/18 11:56:05;;;;;;;3.05;2.20;;;27.90;62.10;;;;;;5095391;28;20106;-91
2021/06/18 11:58:32;;;;;;;3.55;1.70;;;28.00;61.70;;;;;;5096464;28;20031;-89
2021/06/18 12:00:58;;;;;;;2.38;2.15;;;28.30;61.90;;;;;;5098359;28;20020;-90
2021/06/18 12:03:33;;;;;;;2.33;1.85;;;28.70;61.10;;;;;;5095505;28;20024;-90
2021/06/18 12:06:16;;;;;;;3.00;1.77;;;29.20;60.40;;;;;;5095610;28;20028;-90
2021/06/18 12:09:06;;;;;;;1.42;1.33;;;30.00;59.50;;;;;;5095375;28;20077;-90
2021/06/18 12:11:53;;;;;;;2.75;1.70;;;30.70;58.00;;;;;;5095214;28;20081;-91
2021/06/18 12:14:21;;;;;;;2.45;1.77;;;30.90;56.40;;;;;;5096366;28;20472;-89
2021/06/18 12:16:49;;;;;;;1.92;1.80;;;31.10;56.30;;;;;;5096020;28;20504;-90
2021/06/18 12:19:22;;;;;;;10.30;2.03;;;31.40;55.60;;;;;;5094550;28;20058;-90
2021/06/18 12:22:11;;;;;;;2.13;1.85;;;31.50;55.30;;;;;;5096037;28;20111;-92
2021/06/18 12:24:52;;;;;;;2.13;1.88;;;32.00;55.10;;;;;;5095206;28;20130;-90
2021/06/18 12:27:21;;;;;;;1.65;1.48;;;32.50;54.20;;;;;;5094349;28;20024;-90
2021/06/18 12:29:54;;;;;;;8.02;1.88;;;32.90;54.00;;;;;;5095021;28;20051;-91
2021/06/18 12:32:31;;;;;;;8.63;1.58;;;33.20;53.30;;;;;;5096124;28;20035;-90
2021/06/18 12:35:03;;;;;;;2.20;1.70;;;33.20;52.50;;;;;;5079966;28;20044;-91
2021/06/18 12:37:32;;;;;;;2.25;1.60;;;33.10;52.30;;;;;;5094036;28;20036;-90
2021/06/18 12:40:05;;;;;;;3.22;1.65;;;33.10;52.30;;;;;;5094312;28;20094;-90
2021/06/18 12:42:46;;;;;;;2.88;1.58;;;32.90;52.10;;;;;;5094195;28;20065;-89
2021/06/18 12:45:18;;;;;;;2.78;1.73;;;32.90;52.40;;;;;;5093834;28;20542;-91
2021/06/18 12:47:48;;;;;;;1.70;1.58;;;33.60;52.30;;;;;;5093967;28;20027;-91
2021/06/18 12:50:28;;;;;;;1.63;1.52;;;34.30;51.90;;;;;;5095151;28;20028;-89
2021/06/18 12:53:05;;;;;;;2.38;1.77;;;34.80;50.30;;;;;;5096250;28;20108;-91
2021/06/18 12:55:45;;;;;;;3.90;1.70;;;35.30;49.60;;;;;;5094252;28;20081;-88
2021/06/18 12:58:11;;;;;;;2.30;1.30;;;35.70;49.90;;;;;;5095587;28;20481;-89
2021/06/18 13:01:06;;;;;;;2.88;1.50;;;36.10;48.90;;;;;;5094211;28;20032;-91
2021/06/18 13:03:36;;;;;;;5.88;1.80;;;35.90;48.80;;;;;;5094319;28;20024;-89